Time;durP1;ratioP1;P1;durP2;ratioP2;P2;SDS_P1;SDS_P2;PMS_P1;PMS_P2;Temp;Humidity;BMP_temperature;BMP_pressure;BME280_temperature;BME280_humidity;BME280_pressure;Samples;Min_cycle;Max_cycle;Signal;HPM_P1;HPM_P2
2023/05/07 00:01:42;;;;;;;7.90;4.88;;;;;;;16.47;81.61;101520.75;5116281;28;20053;-65
2023/05/07 00:04:08;;;;;;;6.57;4.63;;;;;;;16.53;81.39;101520.75;5114986;28;20027;-65
2023/05/07 00:06:33;;;;;;;8.57;4.68;;;;;;;16.55;81.50;101520.75;5116401;28;20028;-65
2023/05/07 00:09:00;;;;;;;7.70;5.38;;;;;;;16.53;81.47;101526.09;5116307;28;20476;-64
2023/05/07 00:11:26;;;;;;;6.55;4.80;;;;;;;16.51;81.57;101525.19;5116050;27;20048;-65
2023/05/07 00:13:51;;;;;;;6.20;4.93;;;;;;;16.49;81.87;101519.88;5114833;28;20034;-64
2023/05/07 00:16:17;;;;;;;6.75;4.93;;;;;;;16.54;81.68;101519.84;5115997;28;20485;-64
2023/05/07 00:18:42;;;;;;;6.63;4.90;;;;;;;16.55;81.70;101520.75;5115941;28;20076;-65
2023/05/07 00:21:08;;;;;;;7.75;4.85;;;;;;;16.56;81.69;101523.38;5115869;28;20084;-64
2023/05/07 00:23:33;;;;;;;8.05;5.10;;;;;;;16.58;81.67;101521.63;5115740;28;20028;-65
2023/05/07 00:25:58;;;;;;;6.65;5.20;;;;;;;16.59;81.61;101507.38;5115849;28;20477;-65
2023/05/07 00:28:24;;;;;;;7.90;5.45;;;;;;;16.59;81.80;101503.81;5115721;28;20065;-64
2023/05/07 00:30:49;;;;;;;8.15;5.20;;;;;;;16.63;81.90;101505.59;5114525;28;20469;-64
2023/05/07 00:33:15;;;;;;;10.38;5.30;;;;;;;16.61;81.88;101510.03;5115943;28;20121;-65
2023/05/07 00:35:40;;;;;;;8.50;5.28;;;;;;;16.56;82.17;101495.81;5115298;28;20457;-65
2023/05/07 00:38:05;;;;;;;8.57;5.53;;;;;;;16.51;82.40;101507.41;5115527;28;20023;-65
2023/05/07 00:40:31;;;;;;;8.20;5.10;;;;;;;16.53;82.54;101499.41;5115753;28;20090;-65
2023/05/07 00:42:57;;;;;;;7.50;5.20;;;;;;;16.53;82.44;101500.28;5115517;28;20509;-65
2023/05/07 00:45:27;;;;;;;7.72;5.72;;;;;;;16.52;82.46;101486.94;5115408;27;20554;-64
2023/05/07 00:47:57;;;;;;;7.07;5.47;;;;;;;16.53;82.63;101494.97;5115599;28;20027;-65
2023/05/07 00:50:23;;;;;;;9.32;5.85;;;;;;;16.59;82.34;101493.16;5115295;28;20028;-64
2023/05/07 00:52:48;;;;;;;10.20;5.82;;;;;;;16.50;82.77;101478.06;5115223;28;20381;-64
2023/05/07 00:55:14;;;;;;;8.73;5.40;;;;;;;16.53;82.76;101486.06;5115182;28;20407;-64
2023/05/07 00:57:41;;;;;;;8.05;5.55;;;;;;;16.51;82.93;101488.72;5115481;28;20016;-65
2023/05/07 01:00:09;;;;;;;8.00;5.80;;;;;;;16.46;83.02;101490.53;5115454;28;20027;-65
2023/05/07 01:02:35;;;;;;;8.15;5.90;;;;;;;16.46;83.35;101497.66;5115218;28;20031;-65
2023/05/07 01:05:03;;;;;;;9.13;6.07;;;;;;;16.42;83.49;101493.22;5115129;28;20534;-65
2023/05/07 01:07:29;;;;;;;9.25;5.93;;;;;;;16.42;83.85;101498.53;5115189;28;20023;-63
2023/05/07 01:09:55;;;;;;;11.20;6.07;;;;;;;16.34;84.45;101493.22;5114903;28;20388;-65
2023/05/07 01:12:21;;;;;;;8.25;6.20;;;;;;;16.33;84.57;101490.56;5114587;28;20044;-63
2023/05/07 01:14:48;;;;;;;10.05;6.00;;;;;;;16.36;84.58;101491.47;5115017;28;20032;-63
2023/05/07 01:17:15;;;;;;;7.82;5.78;;;;;;;16.38;84.65;101487.00;5115116;27;20469;-64
2023/05/07 01:19:41;;;;;;;9.00;5.97;;;;;;;16.40;84.34;101482.56;5114805;28;20114;-64
2023/05/07 01:22:14;;;;;;;9.68;6.05;;;;;;;16.42;84.32;101493.22;5114952;28;20436;-64
2023/05/07 01:24:41;;;;;;;8.07;6.18;;;;;;;16.42;84.25;101488.75;5114610;28;20035;-64
2023/05/07 01:27:06;;;;;;;8.40;5.90;;;;;;;16.46;84.27;101489.63;5114705;28;20023;-64
2023/05/07 01:29:31;;;;;;;8.38;6.28;;;;;;;16.45;84.40;101483.41;5114482;28;20046;-65
2023/05/07 01:31:59;;;;;;;10.30;6.05;;;;;;;16.48;84.41;101480.72;5114737;28;20031;-65
2023/05/07 01:34:26;;;;;;;7.93;6.32;;;;;;;16.47;84.15;101475.41;5114481;28;20023;-64
2023/05/07 01:36:55;;;;;;;9.32;6.55;;;;;;;16.43;84.50;101468.31;5114621;28;20039;-65
2023/05/07 01:39:21;;;;;;;9.10;5.82;;;;;;;16.39;84.93;101467.41;5114246;28;20078;-64
2023/05/07 01:41:46;;;;;;;8.85;6.40;;;;;;;16.33;85.16;101458.56;5114184;28;20115;-64
2023/05/07 01:44:14;;;;;;;9.07;6.72;;;;;;;16.36;85.10;101455.88;5114373;28;20103;-64
2023/05/07 01:46:40;;;;;;;10.68;6.72;;;;;;;16.31;85.31;101458.56;5113606;28;20027;-64
2023/05/07 01:49:05;;;;;;;9.32;7.00;;;;;;;16.35;85.36;101462.09;5112831;28;20024;-64
2023/05/07 01:51:31;;;;;;;8.70;6.60;;;;;;;16.31;85.34;101465.66;5114397;28;20110;-64
2023/05/07 01:53:57;;;;;;;10.13;7.07;;;;;;;16.33;85.65;101455.91;5114086;28;20030;-65
2023/05/07 01:56:23;;;;;;;10.05;6.88;;;;;;;16.31;85.62;101465.66;5114007;28;20473;-65
2023/05/07 01:58:51;;;;;;;10.43;7.07;;;;;;;16.29;85.66;101457.69;5113637;28;20035;-65
2023/05/07 02:01:16;;;;;;;8.57;7.40;;;;;;;16.21;85.91;101454.16;5114079;28;20500;-63
2023/05/07 02:03:41;;;;;;;9.32;7.22;;;;;;;16.22;86.12;101463.91;5113987;28;20028;-63
2023/05/07 02:06:07;;;;;;;10.43;7.55;;;;;;;16.22;86.25;101461.25;5114012;28;20039;-63
2023/05/07 02:08:32;;;;;;;10.82;7.80;;;;;;;16.21;86.14;101464.81;5113995;28;20023;-63
2023/05/07 02:10:57;;;;;;;9.65;7.68;;;;;;;16.25;86.01;101462.13;5113835;28;20389;-64
2023/05/07 02:13:24;;;;;;;10.85;8.13;;;;;;;16.22;86.38;101450.59;5113610;28;20477;-63
2023/05/07 02:15:50;;;;;;;11.35;7.72;;;;;;;16.17;86.58;101457.72;5113700;28;20032;-63
2023/05/07 02:18:16;;;;;;;10.35;7.75;;;;;;;16.10;86.95;101453.28;5112536;28;20073;-64
2023/05/07 02:20:42;;;;;;;12.80;8.15;;;;;;;16.08;86.98;101447.97;5113611;28;20358;-63
2023/05/07 02:23:07;;;;;;;11.00;8.80;;;;;;;16.05;87.24;101444.41;5113685;28;20026;-64
2023/05/07 02:25:33;;;;;;;10.80;8.85;;;;;;;16.09;87.46;101452.38;5113724;28;20059;-64
2023/05/07 02:27:59;;;;;;;10.25;8.35;;;;;;;16.09;87.31;101457.72;5113899;28;20032;-64
2023/05/07 02:30:25;;;;;;;11.05;8.52;;;;;;;16.07;87.61;101454.19;5113868;28;20489;-64
2023/05/07 02:32:50;;;;;;;12.95;9.07;;;;;;;16.08;87.27;101452.41;5113623;28;20028;-65
2023/05/07 02:35:16;;;;;;;12.23;8.68;;;;;;;16.11;87.19;101461.28;5112696;28;20080;-64
2023/05/07 02:37:41;;;;;;;13.43;9.35;;;;;;;16.14;87.13;101463.94;5113489;28;20020;-64
2023/05/07 02:40:07;;;;;;;11.23;9.00;;;;;;;16.14;87.19;101465.72;5113785;28;20023;-65
2023/05/07 02:42:32;;;;;;;11.77;9.32;;;;;;;16.15;87.16;101464.84;5113896;28;20102;-64
2023/05/07 02:44:58;;;;;;;11.43;9.50;;;;;;;16.09;87.32;101467.50;5113416;28;20586;-64
2023/05/07 02:47:26;;;;;;;13.38;9.30;;;;;;;16.09;87.70;101464.84;5113518;28;20027;-65
2023/05/07 02:49:52;;;;;;;9.85;8.38;;;;;;;16.12;87.11;101465.72;5113632;28;20035;-64
2023/05/07 02:52:17;;;;;;;10.85;9.43;;;;;;;16.11;87.21;101461.28;5113484;28;20073;-64
2023/05/07 02:54:43;;;;;;;12.93;10.57;;;;;;;16.13;87.34;101459.50;5113620;28;20427;-64
2023/05/07 02:57:08;;;;;;;16.50;9.80;;;;;;;16.18;86.74;101464.81;5113660;28;20028;-65
2023/05/07 02:59:33;;;;;;;15.30;10.30;;;;;;;16.12;87.31;101468.38;5117581;28;20024;-65
2023/05/07 03:01:59;;;;;;;12.85;10.15;;;;;;;16.11;87.39;101469.28;5117760;28;20063;-65
2023/05/07 03:04:24;;;;;;;13.93;10.40;;;;;;;16.12;87.43;101468.38;5117369;28;20545;-65
2023/05/07 03:06:50;;;;;;;13.07;10.55;;;;;;;16.06;87.79;101471.09;5117371;28;20019;-65
2023/05/07 03:09:16;;;;;;;14.57;9.88;;;;;;;16.07;87.91;101469.31;5117205;28;20027;-65
2023/05/07 03:11:41;;;;;;;11.90;10.18;;;;;;;16.04;88.00;101462.19;5117110;28;20127;-64
2023/05/07 03:14:07;;;;;;;12.52;10.57;;;;;;;16.04;87.99;101470.19;5117070;28;20034;-64
2023/05/07 03:16:32;;;;;;;12.77;10.02;;;;;;;16.03;88.53;101463.09;5117216;28;20073;-64
2023/05/07 03:18:58;;;;;;;13.93;10.70;;;;;;;16.01;88.29;101464.84;5116260;28;20031;-65
2023/05/07 03:21:23;;;;;;;16.05;10.13;;;;;;;16.03;88.12;101457.75;5117159;28;20063;-65
2023/05/07 03:23:48;;;;;;;15.45;11.10;;;;;;;16.05;88.10;101455.06;5117011;28;20032;-65
2023/05/07 03:26:14;;;;;;;16.27;11.05;;;;;;;15.95;88.29;101455.09;5116946;28;20502;-64
2023/05/07 03:28:39;;;;;;;15.65;10.93;;;;;;;16.00;88.47;101463.06;5116873;28;20034;-65
2023/05/07 03:31:05;;;;;;;13.45;10.40;;;;;;;16.06;88.30;101456.84;5117129;28;20034;-64
2023/05/07 03:33:33;;;;;;;12.18;9.98;;;;;;;16.03;88.30;101447.09;5117106;28;20115;-64
2023/05/07 03:35:58;;;;;;;14.40;10.63;;;;;;;16.03;87.96;101447.09;5116876;28;20031;-64
2023/05/07 03:38:24;;;;;;;14.25;10.50;;;;;;;16.06;87.90;101454.16;5116823;28;20020;-64
2023/05/07 03:40:49;;;;;;;14.07;10.90;;;;;;;16.00;88.43;101449.75;5115696;28;20545;-64
2023/05/07 03:43:15;;;;;;;15.10;10.68;;;;;;;15.94;89.07;101444.44;5116511;28;20419;-64
2023/05/07 03:45:42;;;;;;;13.93;11.80;;;;;;;15.86;89.32;101444.44;5116732;28;20055;-64
2023/05/07 03:48:07;;;;;;;14.32;11.52;;;;;;;15.88;89.61;101437.31;5115034;28;20503;-64
2023/05/07 03:50:33;;;;;;;15.98;11.77;;;;;;;15.91;89.03;101448.00;5115222;28;20028;-63
2023/05/07 03:52:58;;;;;;;14.10;11.60;;;;;;;15.90;89.06;101445.34;5116372;28;20460;-64
2023/05/07 03:55:25;;;;;;;16.17;11.18;;;;;;;15.89;89.45;101456.91;5114972;28;20071;-64
2023/05/07 03:57:51;;;;;;;14.50;12.07;;;;;;;15.91;89.26;101452.44;5116310;28;20024;-64
2023/05/07 04:00:16;;;;;;;15.55;11.60;;;;;;;15.84;89.55;101451.53;5116452;28;20027;-63
2023/05/07 04:02:42;;;;;;;14.65;11.70;;;;;;;15.82;89.69;101460.44;5116422;28;20532;-63
2023/05/07 04:05:08;;;;;;;13.30;11.77;;;;;;;15.78;89.98;101462.22;5114964;28;20038;-64
2023/05/07 04:07:34;;;;;;;16.30;12.13;;;;;;;15.81;89.61;101469.34;5115880;28;20028;-63
2023/05/07 04:09:59;;;;;;;14.05;11.52;;;;;;;15.81;89.70;101467.56;5113589;28;20108;-63
2023/05/07 04:12:24;;;;;;;14.15;12.10;;;;;;;15.82;90.18;101466.66;5115851;28;20131;-63
2023/05/07 04:14:50;;;;;;;15.90;12.30;;;;;;;15.81;90.24;101480.00;5115822;28;20035;-64
2023/05/07 04:17:15;;;;;;;16.38;13.15;;;;;;;15.75;90.59;101475.53;5116112;28;20016;-63
2023/05/07 04:19:45;;;;;;;13.98;11.85;;;;;;;15.81;90.32;101480.88;5116022;28;20031;-63
2023/05/07 04:22:10;;;;;;;14.48;11.77;;;;;;;15.80;90.43;101476.41;5115848;28;20361;-63
2023/05/07 04:24:36;;;;;;;14.48;12.13;;;;;;;15.81;90.48;101480.88;5115810;27;20133;-64
2023/05/07 04:27:01;;;;;;;15.68;12.23;;;;;;;15.80;90.41;101479.06;5116066;28;20058;-63
2023/05/07 04:29:27;;;;;;;16.00;11.82;;;;;;;15.82;90.48;101476.44;5115042;28;20366;-64
2023/05/07 04:31:52;;;;;;;15.07;12.57;;;;;;;15.84;90.23;101480.84;5114615;28;20024;-64
2023/05/07 04:34:18;;;;;;;16.20;12.30;;;;;;;15.86;90.32;101478.22;5097403;28;20110;-64
2023/05/07 04:36:43;;;;;;;14.70;12.80;;;;;;;15.88;90.20;101484.41;5115701;28;20355;-64
2023/05/07 04:39:10;;;;;;;16.60;12.60;;;;;;;15.92;89.96;101484.41;5115781;28;20040;-64
2023/05/07 04:41:36;;;;;;;15.98;12.38;;;;;;;15.92;89.88;101476.41;5115803;28;20034;-64
2023/05/07 04:44:04;;;;;;;16.20;12.20;;;;;;;15.86;89.86;101486.22;5115419;28;20019;-63
2023/05/07 04:46:30;;;;;;;17.73;12.38;;;;;;;15.86;90.18;101486.22;5115720;28;20024;-63
2023/05/07 04:48:55;;;;;;;14.00;12.55;;;;;;;15.87;89.92;101483.53;5115645;28;20451;-64
2023/05/07 04:51:21;;;;;;;15.43;12.32;;;;;;;15.87;90.21;101482.66;5115600;28;20377;-64
2023/05/07 04:53:48;;;;;;;15.70;12.90;;;;;;;15.89;90.21;101487.09;5115532;28;20020;-64
2023/05/07 04:56:13;;;;;;;14.65;12.18;;;;;;;15.91;90.10;101479.97;5115448;27;20063;-63
2023/05/07 04:58:39;;;;;;;16.05;12.63;;;;;;;15.91;90.38;101482.63;5115477;28;20066;-64
2023/05/07 05:01:04;;;;;;;15.23;12.55;;;;;;;15.93;90.23;101485.28;5113979;28;20098;-64
2023/05/07 05:03:30;;;;;;;15.32;12.70;;;;;;;15.96;89.86;101494.19;5115063;28;20030;-64
2023/05/07 05:05:56;;;;;;;14.85;13.02;;;;;;;16.01;90.11;101494.16;5115155;28;20057;-63
2023/05/07 05:08:22;;;;;;;18.80;13.75;;;;;;;15.95;90.29;101491.53;5115309;28;20042;-65
2023/05/07 05:10:49;;;;;;;15.60;12.85;;;;;;;15.96;90.46;101490.63;5114679;28;20032;-65
2023/05/07 05:13:15;;;;;;;19.83;13.30;;;;;;;15.99;90.20;101496.84;5114900;28;20541;-64
2023/05/07 05:15:40;;;;;;;18.73;13.25;;;;;;;16.02;90.45;101498.63;5113425;28;20024;-64
2023/05/07 05:18:06;;;;;;;19.23;13.35;;;;;;;16.03;90.44;101500.41;5114842;28;20030;-64
2023/05/07 05:20:31;;;;;;;15.57;13.32;;;;;;;16.06;90.35;101503.06;5114600;28;20080;-64
2023/05/07 05:22:57;;;;;;;16.08;13.95;;;;;;;16.06;90.46;101505.75;5114692;28;20030;-64
2023/05/07 05:25:22;;;;;;;16.23;13.55;;;;;;;16.10;90.58;101502.19;5113538;28;20108;-64
2023/05/07 05:27:47;;;;;;;18.00;14.13;;;;;;;16.14;90.77;101503.91;5114659;28;20514;-64
2023/05/07 05:30:13;;;;;;;18.13;13.48;;;;;;;16.15;90.71;101510.16;5113357;28;20032;-64
2023/05/07 05:32:38;;;;;;;15.55;13.75;;;;;;;16.19;90.70;101511.94;5114801;28;20051;-64
2023/05/07 05:35:04;;;;;;;17.90;14.88;;;;;;;16.17;90.64;101508.38;5114774;28;20064;-64
2023/05/07 05:37:31;;;;;;;17.25;14.27;;;;;;;16.17;90.88;101513.72;5114696;28;20034;-64
2023/05/07 05:39:56;;;;;;;17.88;14.73;;;;;;;16.15;91.14;101524.38;5113114;28;20476;-63
2023/05/07 05:42:22;;;;;;;19.58;14.93;;;;;;;16.15;91.38;101515.50;5114429;28;20053;-64
2023/05/07 05:44:47;;;;;;;18.92;15.60;;;;;;;16.10;91.63;101522.59;5114254;28;20024;-63
2023/05/07 05:47:13;;;;;;;20.65;15.73;;;;;;;16.08;91.93;101514.59;5114263;28;20028;-64
2023/05/07 05:49:39;;;;;;;18.90;14.98;;;;;;;16.11;91.90;101519.94;5113073;28;20046;-63
2023/05/07 05:52:04;;;;;;;17.65;14.77;;;;;;;16.14;91.91;101519.03;5114228;28;20024;-63
2023/05/07 05:54:30;;;;;;;18.67;14.48;;;;;;;16.12;91.74;101521.72;5114069;28;20106;-63
2023/05/07 05:56:55;;;;;;;18.38;14.40;;;;;;;16.12;91.74;101523.50;5114185;28;20415;-63
2023/05/07 05:59:21;;;;;;;21.95;15.30;;;;;;;16.10;92.25;101525.25;5114160;28;20027;-64
2023/05/07 06:01:46;;;;;;;20.05;15.18;;;;;;;16.14;92.45;101524.38;5114271;28;20023;-65
2023/05/07 06:04:12;;;;;;;20.80;15.57;;;;;;;16.14;93.10;101524.38;5114026;28;20487;-64
2023/05/07 06:06:37;;;;;;;19.48;15.00;;;;;;;16.13;92.51;101519.94;5114001;28;20027;-64
2023/05/07 06:09:02;;;;;;;21.58;15.43;;;;;;;16.14;92.74;101521.69;5113818;28;20442;-64
2023/05/07 06:11:28;;;;;;;18.35;15.45;;;;;;;16.16;92.31;101528.81;5095414;28;20047;-65
2023/05/07 06:13:53;;;;;;;19.63;15.73;;;;;;;16.20;92.52;101522.59;5112498;28;20077;-65
2023/05/07 06:16:19;;;;;;;18.33;15.13;;;;;;;16.27;92.78;101523.44;5113857;28;20035;-64
2023/05/07 06:18:46;;;;;;;22.40;15.60;;;;;;;16.33;92.89;101523.47;5113746;28;20032;-63
2023/05/07 06:21:11;;;;;;;20.27;15.90;;;;;;;16.37;92.52;101527.00;5113401;28;20473;-65
2023/05/07 06:23:37;;;;;;;21.73;15.18;;;;;;;16.42;92.82;101526.09;5113695;28;20114;-63
2023/05/07 06:26:02;;;;;;;18.40;14.90;;;;;;;16.46;92.17;101527.00;5113690;28;20102;-64
2023/05/07 06:28:28;;;;;;;18.13;15.25;;;;;;;16.52;91.54;101530.50;5113749;28;20034;-64
2023/05/07 06:30:53;;;;;;;17.30;15.32;;;;;;;16.54;91.40;101527.84;5113528;28;20078;-64
2023/05/07 06:33:19;;;;;;;17.90;16.00;;;;;;;16.60;91.92;101534.94;5113041;28;20111;-65
2023/05/07 06:35:45;;;;;;;17.85;15.95;;;;;;;16.63;91.35;101535.84;5113635;28;20028;-64
2023/05/07 06:38:12;;;;;;;18.90;15.73;;;;;;;16.61;91.95;101528.72;5113459;28;20030;-63
2023/05/07 06:40:37;;;;;;;19.65;15.40;;;;;;;16.60;92.52;101532.28;5113597;28;20558;-63
2023/05/07 06:43:02;;;;;;;23.08;16.13;;;;;;;16.62;92.35;101523.38;5112275;28;20055;-63
2023/05/07 06:45:28;;;;;;;19.40;15.80;;;;;;;16.66;91.98;101532.25;5113376;28;20023;-63
2023/05/07 06:47:53;;;;;;;21.35;16.27;;;;;;;16.67;92.16;101529.59;5113763;28;20028;-63
2023/05/07 06:50:19;;;;;;;23.58;17.10;;;;;;;16.71;92.19;101531.34;5113422;28;20126;-62
2023/05/07 06:52:44;;;;;;;19.35;17.33;;;;;;;16.80;91.73;101534.91;5113678;28;20468;-63
2023/05/07 06:55:11;;;;;;;18.88;16.13;;;;;;;16.78;91.18;101545.59;5113604;28;20047;-64
2023/05/07 06:57:36;;;;;;;18.95;15.90;;;;;;;16.76;91.20;101542.06;5113380;28;20027;-63
2023/05/07 07:00:02;;;;;;;19.90;16.38;;;;;;;16.77;91.36;101550.03;5113654;28;20034;-63
2023/05/07 07:02:27;;;;;;;20.50;16.55;;;;;;;16.74;91.43;101550.06;5113374;28;20542;-63
2023/05/07 07:04:53;;;;;;;19.35;15.48;;;;;;;16.75;91.11;101543.84;5113282;28;20035;-63
2023/05/07 07:07:18;;;;;;;19.30;16.05;;;;;;;16.74;91.44;101546.47;5113054;28;20061;-63
2023/05/07 07:09:43;;;;;;;22.35;16.77;;;;;;;16.80;91.65;101548.28;5113281;28;20028;-63
2023/05/07 07:12:09;;;;;;;25.05;18.65;;;;;;;16.80;91.77;101556.28;5112858;28;20079;-63
2023/05/07 07:14:34;;;;;;;20.63;16.25;;;;;;;16.79;91.60;101555.41;5112857;28;20465;-63
2023/05/07 07:17:00;;;;;;;24.17;19.42;;;;;;;16.80;91.92;101556.28;5113456;28;20491;-63
2023/05/07 07:19:26;;;;;;;47.45;41.17;;;;;;;16.79;92.20;101563.41;5113483;28;20051;-62
2023/05/07 07:21:51;;;;;;;38.65;34.60;;;;;;;16.82;91.89;101555.34;5113426;28;20027;-63
2023/05/07 07:24:20;;;;;;;20.80;16.90;;;;;;;16.81;91.86;101544.69;5113065;28;20424;-64
2023/05/07 07:26:46;;;;;;;20.27;16.40;;;;;;;16.86;91.83;101553.56;5113129;28;20099;-63
2023/05/07 07:29:11;;;;;;;20.35;16.95;;;;;;;16.88;91.09;101552.69;5113241;28;20074;-63
2023/05/07 07:31:37;;;;;;;25.50;15.85;;;;;;;16.92;90.69;101556.25;5112990;28;20088;-64
2023/05/07 07:34:02;;;;;;;20.35;16.25;;;;;;;16.90;90.49;101550.00;5094876;28;20030;-63
2023/05/07 07:36:27;;;;;;;18.17;16.02;;;;;;;16.91;90.52;101558.00;5113114;28;20106;-63
2023/05/07 07:38:54;;;;;;;22.52;16.85;;;;;;;16.89;91.48;101561.56;5112939;28;20027;-63
2023/05/07 07:41:19;;;;;;;19.02;16.15;;;;;;;16.88;90.91;101565.16;5112971;28;20092;-63
2023/05/07 07:43:46;;;;;;;21.92;16.05;;;;;;;16.93;90.55;101566.91;5112474;28;20110;-63
2023/05/07 07:46:12;;;;;;;20.70;16.42;;;;;;;16.97;90.51;101562.44;5115793;28;20032;-63
2023/05/07 07:48:37;;;;;;;20.13;16.48;;;;;;;17.04;92.00;101574.84;5116104;28;20487;-63
2023/05/07 07:51:03;;;;;;;20.67;16.95;;;;;;;17.12;90.12;101565.03;5116116;28;20034;-62
2023/05/07 07:53:28;;;;;;;19.88;16.48;;;;;;;17.20;90.98;101567.66;5115911;28;20571;-62
2023/05/07 07:55:54;;;;;;;22.92;16.90;;;;;;;17.25;90.85;101558.72;5115890;28;20357;-63
2023/05/07 07:58:19;;;;;;;18.80;16.52;;;;;;;17.35;89.80;101574.72;5115802;28;20480;-63
2023/05/07 08:00:45;;;;;;;20.90;17.50;;;;;;;17.41;88.85;101569.34;5116077;27;20114;-62
2023/05/07 08:03:10;;;;;;;20.70;17.48;;;;;;;17.45;89.00;101566.63;5116426;28;20023;-62
2023/05/07 08:05:36;;;;;;;20.15;16.45;;;;;;;17.57;88.43;101568.34;5116557;28;20500;-63
2023/05/07 08:08:01;;;;;;;22.60;16.23;;;;;;;17.66;87.81;101568.28;5116261;28;20445;-64
2023/05/07 08:10:27;;;;;;;23.30;16.52;;;;;;;17.81;89.12;101571.75;5116000;28;20028;-63
2023/05/07 08:12:52;;;;;;;19.15;15.68;;;;;;;17.89;87.12;101567.25;5115986;28;20047;-64
2023/05/07 08:15:19;;;;;;;19.85;16.20;;;;;;;18.02;88.23;101564.44;5116219;28;20419;-64
2023/05/07 08:17:45;;;;;;;22.90;17.83;;;;;;;18.21;87.54;101559.84;5116032;28;20077;-64
2023/05/07 08:20:10;;;;;;;18.75;16.38;;;;;;;18.33;88.05;101566.88;5116080;28;20020;-63
2023/05/07 08:22:36;;;;;;;19.08;16.90;;;;;;;18.49;87.49;101571.16;5115091;28;20076;-63
2023/05/07 08:25:02;;;;;;;22.75;17.75;;;;;;;18.70;88.40;101572.75;5115805;28;20031;-64
2023/05/07 08:27:28;;;;;;;21.77;17.58;;;;;;;18.99;87.05;101568.84;5116170;28;20038;-63
2023/05/07 08:29:53;;;;;;;22.27;17.38;;;;;;;19.27;86.56;101575.63;5115930;28;20020;-63
2023/05/07 08:32:19;;;;;;;18.58;14.55;;;;;;;19.39;79.79;101577.22;5115824;28;20470;-64
2023/05/07 08:34:44;;;;;;;17.88;14.80;;;;;;;19.51;80.25;101581.53;5115581;28;20032;-64
2023/05/07 08:37:09;;;;;;;18.27;14.73;;;;;;;19.52;79.70;101578.81;5114438;28;20120;-63
2023/05/07 08:39:35;;;;;;;16.33;14.60;;;;;;;19.59;79.41;101574.28;5115801;28;20031;-63
2023/05/07 08:42:03;;;;;;;18.40;14.52;;;;;;;19.59;79.06;101581.44;5115899;28;20031;-63
2023/05/07 08:44:33;;;;;;;17.05;14.23;;;;;;;19.61;78.12;101585.88;5115430;28;20028;-63
2023/05/07 08:47:02;;;;;;;19.48;14.35;;;;;;;19.57;78.97;101586.84;5115795;28;20054;-64
2023/05/07 08:49:28;;;;;;;14.25;12.68;;;;;;;19.60;77.18;101584.06;5115367;28;20606;-63
2023/05/07 08:51:53;;;;;;;15.65;14.00;;;;;;;19.61;78.36;101585.88;5115693;28;20059;-63
2023/05/07 08:54:20;;;;;;;18.17;13.75;;;;;;;19.62;77.97;101584.13;5115295;28;20031;-63
2023/05/07 08:56:46;;;;;;;17.60;13.38;;;;;;;19.63;77.91;101580.50;5115042;28;20031;-63
2023/05/07 08:59:11;;;;;;;17.80;13.80;;;;;;;19.62;78.17;101579.63;5115197;28;20023;-63
2023/05/07 09:01:38;;;;;;;18.48;13.55;;;;;;;19.67;78.17;101585.81;5115175;28;20074;-63
2023/05/07 09:04:04;;;;;;;17.80;13.10;;;;;;;19.72;78.49;101583.94;5115131;28;20061;-64
2023/05/07 09:06:30;;;;;;;16.10;12.88;;;;;;;19.80;77.38;101588.31;5115352;28;20027;-63
2023/05/07 09:08:55;;;;;;;16.25;12.75;;;;;;;19.81;77.35;101590.06;5114890;28;20472;-63
2023/05/07 09:11:24;;;;;;;14.88;12.80;;;;;;;19.86;77.41;101590.88;5113733;28;20053;-63
2023/05/07 09:13:57;;;;;;;18.45;13.07;;;;;;;19.90;77.48;101584.56;5115082;28;20031;-64
2023/05/07 09:16:24;;;;;;;17.67;13.20;;;;;;;19.99;79.27;101581.72;5114905;28;20074;-64
2023/05/07 09:18:53;;;;;;;15.55;12.77;;;;;;;19.99;77.95;101587.97;5114845;28;20634;-63
2023/05/07 09:21:19;;;;;;;15.50;13.05;;;;;;;19.99;75.55;101582.59;5115165;28;20020;-63
2023/05/07 09:23:45;;;;;;;13.50;12.07;;;;;;;19.98;75.28;101586.19;5114754;28;20477;-63
2023/05/07 09:26:11;;;;;;;16.63;12.63;;;;;;;20.10;78.73;101579.75;5114694;28;20074;-63
2023/05/07 09:28:41;;;;;;;16.10;12.85;;;;;;;20.10;77.24;101584.25;5114746;28;20027;-63
2023/05/07 09:31:08;;;;;;;15.45;13.25;;;;;;;20.11;76.16;101591.38;5114826;28;20016;-64
2023/05/07 09:33:33;;;;;;;16.00;11.95;;;;;;;20.15;75.82;101593.09;5114821;28;20081;-64
2023/05/07 09:36:02;;;;;;;16.75;12.38;;;;;;;20.13;75.10;101590.44;5114600;28;20466;-63
2023/05/07 09:38:28;;;;;;;15.32;12.50;;;;;;;20.10;76.31;101593.16;5114487;28;20114;-63
2023/05/07 09:41:04;;;;;;;17.30;12.45;;;;;;;20.17;76.43;101591.25;5114134;28;20118;-64
2023/05/07 09:43:36;;;;;;;19.70;12.15;;;;;;;20.19;77.15;101598.38;5114303;28;20441;-61
2023/05/07 09:46:05;;;;;;;18.20;13.07;;;;;;;20.23;76.91;101591.16;5112848;28;20032;-62
2023/05/07 09:48:31;;;;;;;15.65;12.77;;;;;;;20.25;76.24;101589.31;5114231;28;20107;-62
2023/05/07 09:51:02;;;;;;;17.08;13.45;;;;;;;20.38;77.27;101592.69;5113275;28;20024;-63
2023/05/07 09:53:29;;;;;;;15.00;13.30;;;;;;;20.52;77.84;101596.06;5114484;28;20031;-63
2023/05/07 09:55:57;;;;;;;16.67;14.05;;;;;;;20.64;77.31;101602.97;5114236;28;20442;-62
2023/05/07 09:58:25;;;;;;;15.90;13.25;;;;;;;20.88;77.17;101596.25;5114455;28;20015;-62
2023/05/07 10:00:52;;;;;;;14.80;11.88;;;;;;;20.96;73.50;101597.00;5114142;28;20377;-62
2023/05/07 10:03:20;;;;;;;13.98;11.88;;;;;;;21.00;72.90;101590.63;5112911;28;20034;-62
2023/05/07 10:05:47;;;;;;;15.75;12.23;;;;;;;21.16;72.89;101600.16;5114325;28;20081;-62
2023/05/07 10:08:13;;;;;;;15.73;12.82;;;;;;;21.25;73.42;101596.38;5111776;28;20066;-61
2023/05/07 10:10:40;;;;;;;14.57;11.82;;;;;;;21.50;72.50;101594.09;5113763;28;20020;-62
2023/05/07 10:13:10;;;;;;;17.92;12.60;;;;;;;21.58;71.26;101593.88;5113010;28;20101;-62
2023/05/07 10:15:36;;;;;;;14.68;11.77;;;;;;;21.79;70.09;101596.06;5113303;28;20031;-62
2023/05/07 10:18:03;;;;;;;15.02;12.20;;;;;;;21.81;70.79;101583.47;5111386;28;20084;-62
2023/05/07 10:20:29;;;;;;;15.85;11.82;;;;;;;21.88;70.19;101585.06;5112974;28;20034;-62
2023/05/07 10:22:57;;;;;;;14.77;11.68;;;;;;;22.03;69.33;101591.03;5111729;28;20024;-61
2023/05/07 10:25:41;;;;;;;15.70;12.50;;;;;;;22.23;71.09;101586.94;5112500;28;20030;-62
2023/05/07 10:28:10;;;;;;;16.30;12.85;;;;;;;22.26;69.27;101588.66;5112627;28;20028;-62
2023/05/07 10:30:44;;;;;;;15.82;13.40;;;;;;;22.39;69.49;101591.91;5113162;28;20053;-62
2023/05/07 10:33:13;;;;;;;17.98;14.00;;;;;;;22.46;70.37;101588.16;5113788;28;20031;-61
2023/05/07 10:35:41;;;;;;;13.65;11.25;;;;;;;22.56;67.49;101596.84;5113707;28;20461;-62
2023/05/07 10:38:07;;;;;;;13.15;11.07;;;;;;;22.67;67.00;101595.63;5113591;28;20536;-62
2023/05/07 10:40:33;;;;;;;14.32;11.13;;;;;;;22.74;67.03;101590.97;5113564;28;20122;-62
2023/05/07 10:43:00;;;;;;;16.05;10.93;;;;;;;22.74;65.94;101594.56;5113621;28;20500;-61
2023/05/07 10:45:26;;;;;;;14.55;10.65;;;;;;;22.75;63.91;101598.13;5113764;28;20035;-62
2023/05/07 10:48:08;;;;;;;12.68;11.02;;;;;;;22.83;65.57;101600.63;5113524;28;20483;-61
2023/05/07 10:50:34;;;;;;;16.75;10.55;;;;;;;22.78;63.86;101591.75;5113482;28;20020;-62
2023/05/07 10:53:18;;;;;;;14.30;10.18;;;;;;;22.80;64.94;101595.31;5113791;28;20085;-62
2023/05/07 10:56:19;;;;;;;15.68;11.68;;;;;;;22.89;65.91;101587.84;5113353;28;20092;-62
2023/05/07 10:58:44;;;;;;;14.38;10.98;;;;;;;22.91;64.82;101588.72;5107514;28;20127;-62
2023/05/07 11:01:12;;;;;;;12.98;11.13;;;;;;;22.97;64.94;101591.22;5113630;28;20119;-62
2023/05/07 11:04:17;;;;;;;16.90;11.43;;;;;;;23.12;65.27;101592.59;5113303;28;20500;-61
2023/05/07 11:07:08;;;;;;;14.02;12.18;;;;;;;23.21;66.94;101586.94;5113658;28;20027;-61
2023/05/07 11:09:52;;;;;;;15.20;11.60;;;;;;;23.43;64.95;101587.16;5112825;28;20066;-62